createdAt,value
2022-12-31T00:01:06.664Z,50.20
2022-12-31T00:03:35.179Z,50.60
2022-12-31T00:06:13.977Z,55.40
2022-12-31T00:08:43.709Z,37.00
2022-12-31T00:11:12.037Z,25.30
2022-12-31T00:13:40.855Z,26.50
2022-12-31T00:16:15.586Z,25.40
2022-12-31T00:18:46.182Z,49.70
2022-12-31T00:21:15.251Z,57.60
2022-12-31T00:23:43.235Z,44.50
2022-12-31T00:26:14.337Z,55.70
2022-12-31T00:28:43.020Z,40.70
2022-12-31T00:31:12.776Z,38.00
2022-12-31T00:33:41.503Z,48.40
2022-12-31T00:36:18.170Z,50.50
2022-12-31T00:38:48.485Z,26.80
2022-12-31T00:41:18.124Z,41.80
2022-12-31T00:43:46.698Z,18.30
2022-12-31T00:46:15.680Z,21.70
2022-12-31T00:48:43.944Z,31.60
2022-12-31T00:51:15.432Z,21.70
2022-12-31T00:53:44.299Z,49.70
2022-12-31T00:56:19.618Z,34.10
2022-12-31T00:58:48.700Z,32.90
2022-12-31T01:01:28.934Z,59.60
2022-12-31T01:04:10.594Z,42.60
2022-12-31T01:06:39.700Z,54.30
2022-12-31T01:09:08.783Z,52.20
2022-12-31T01:11:37.378Z,49.40
2022-12-31T01:14:10.090Z,47.60
2022-12-31T01:16:53.818Z,48.30
2022-12-31T01:19:25.602Z,48.90
2022-12-31T01:21:54.183Z,45.80
2022-12-31T01:24:22.712Z,47.70
2022-12-31T01:26:51.587Z,46.20
2022-12-31T01:29:19.701Z,44.30
2022-12-31T01:31:47.680Z,41.40
2022-12-31T01:34:15.627Z,43.20
2022-12-31T01:36:43.627Z,47.20
2022-12-31T01:39:12.447Z,44.60
2022-12-31T01:41:44.129Z,47.90
2022-12-31T01:44:12.010Z,43.20
2022-12-31T01:46:52.006Z,24.80
2022-12-31T01:49:45.364Z,20.60
2022-12-31T01:52:18.120Z,43.20
2022-12-31T01:54:51.771Z,27.90
2022-12-31T01:57:21.241Z,26.80
2022-12-31T01:59:50.221Z,24.30
2022-12-31T02:02:18.501Z,32.20
2022-12-31T02:04:48.613Z,37.90
2022-12-31T02:07:16.598Z,47.80
2022-12-31T02:09:45.086Z,47.80
2022-12-31T02:12:13.978Z,44.60
2022-12-31T02:14:49.417Z,21.90
2022-12-31T02:17:46.640Z,42.90
2022-12-31T02:20:46.872Z,47.90
2022-12-31T02:23:45.635Z,48.90
2022-12-31T02:26:33.579Z,48.10
2022-12-31T02:29:16.646Z,48.80
2022-12-31T02:32:04.256Z,47.10
2022-12-31T02:34:53.027Z,45.10
2022-12-31T02:37:24.473Z,22.10
2022-12-31T02:39:53.116Z,48.40
2022-12-31T02:42:21.259Z,28.20
2022-12-31T02:48:30.407Z,50.80
2022-12-31T02:51:12.585Z,43.20
2022-12-31T02:53:58.457Z,40.20
2022-12-31T02:56:49.599Z,45.00
2022-12-31T02:59:52.837Z,44.60
2022-12-31T03:02:23.989Z,45.90
2022-12-31T03:04:55.546Z,51.60
2022-12-31T03:07:27.088Z,38.50
2022-12-31T03:09:56.004Z,20.40
2022-12-31T03:12:45.800Z,19.50
2022-12-31T03:15:43.466Z,63.30
2022-12-31T03:18:17.178Z,45.60
2022-12-31T03:21:06.994Z,31.20
2022-12-31T03:23:50.286Z,30.70
2022-12-31T03:28:47.984Z,46.70
2022-12-31T03:31:16.984Z,39.30
2022-12-31T03:33:44.970Z,49.60
2022-12-31T03:36:15.157Z,47.70
2022-12-31T03:38:46.400Z,47.00
2022-12-31T03:41:17.993Z,22.70
2022-12-31T03:43:46.063Z,42.20
2022-12-31T03:46:14.384Z,49.40
2022-12-31T03:48:42.549Z,37.30
2022-12-31T03:51:10.564Z,28.80
2022-12-31T03:53:39.098Z,19.10
2022-12-31T03:56:07.233Z,41.10
2022-12-31T03:58:35.410Z,36.00
2022-12-31T04:01:03.563Z,26.70
2022-12-31T04:03:31.591Z,43.60
2022-12-31T04:05:59.575Z,29.70
2022-12-31T04:08:27.649Z,30.10
2022-12-31T04:10:55.664Z,18.30
2022-12-31T04:13:23.731Z,32.40
2022-12-31T04:15:52.178Z,26.40
2022-12-31T04:18:20.427Z,30.10
2022-12-31T04:20:48.707Z,16.20
2022-12-31T04:23:18.393Z,35.40
2022-12-31T04:25:46.638Z,41.90
2022-12-31T04:28:15.055Z,43.00
2022-12-31T04:30:44.165Z,46.50
2022-12-31T04:33:12.218Z,33.60
2022-12-31T04:35:40.365Z,29.30
2022-12-31T04:38:08.749Z,34.80
2022-12-31T04:40:56.699Z,41.50
2022-12-31T04:43:24.904Z,48.20
2022-12-31T04:45:52.937Z,35.80
2022-12-31T04:48:21.746Z,30.20
2022-12-31T04:50:49.703Z,43.50
2022-12-31T04:53:17.829Z,39.60
2022-12-31T04:55:46.167Z,23.80
2022-12-31T04:58:14.222Z,55.50
2022-12-31T05:00:42.182Z,46.80
2022-12-31T05:03:10.388Z,38.10
2022-12-31T05:05:40.014Z,18.70
2022-12-31T05:08:08.139Z,22.20
2022-12-31T05:10:36.780Z,42.10
2022-12-31T05:13:04.728Z,42.30
2022-12-31T05:15:33.200Z,26.30
2022-12-31T05:18:01.516Z,44.90
2022-12-31T05:20:30.106Z,41.30
2022-12-31T05:22:58.208Z,23.60
2022-12-31T05:25:26.297Z,47.10
2022-12-31T05:27:54.434Z,24.30
2022-12-31T05:30:23.860Z,48.70
2022-12-31T05:32:51.986Z,37.30
2022-12-31T05:35:19.897Z,22.10
2022-12-31T05:37:48.231Z,29.80
2022-12-31T05:40:16.226Z,21.40
2022-12-31T05:42:44.582Z,41.30
2022-12-31T05:45:15.973Z,38.20
2022-12-31T05:47:45.245Z,18.40
2022-12-31T05:50:18.150Z,40.90
2022-12-31T05:52:47.759Z,44.90
2022-12-31T05:55:16.574Z,35.90
2022-12-31T05:57:44.685Z,22.00
2022-12-31T06:00:13.590Z,39.40
2022-12-31T06:02:41.738Z,37.30
2022-12-31T06:05:10.534Z,41.80
2022-12-31T06:07:38.633Z,46.70
2022-12-31T06:10:07.172Z,27.50
2022-12-31T06:12:35.668Z,43.50
2022-12-31T06:15:04.396Z,63.00
2022-12-31T06:17:32.637Z,38.00
2022-12-31T06:20:01.256Z,20.70
2022-12-31T06:22:29.540Z,22.90
2022-12-31T06:24:57.597Z,45.00
2022-12-31T06:27:25.702Z,48.90
2022-12-31T06:29:53.669Z,45.00
2022-12-31T06:32:21.611Z,30.30
2022-12-31T06:34:49.653Z,29.90
2022-12-31T06:37:17.809Z,23.30
2022-12-31T06:39:45.941Z,28.90
2022-12-31T06:42:15.240Z,25.00
2022-12-31T06:44:44.029Z,25.20
2022-12-31T06:47:12.018Z,39.50
2022-12-31T06:49:40.896Z,31.50
2022-12-31T06:52:08.977Z,58.60
2022-12-31T06:54:37.450Z,55.20
2022-12-31T06:57:05.876Z,62.70
2022-12-31T06:59:34.310Z,38.80
2022-12-31T07:02:40.796Z,27.30
2022-12-31T07:05:50.956Z,55.70
2022-12-31T07:08:33.917Z,35.80
2022-12-31T07:11:23.300Z,33.80
2022-12-31T07:13:57.542Z,43.60
2022-12-31T07:16:54.988Z,55.60
2022-12-31T07:19:35.883Z,59.00
2022-12-31T07:22:04.202Z,55.90
2022-12-31T07:24:32.618Z,56.80
2022-12-31T07:27:20.740Z,40.00
2022-12-31T07:30:00.714Z,38.20
2022-12-31T07:32:44.607Z,55.70
2022-12-31T07:37:58.934Z,55.60
2022-12-31T07:40:42.122Z,46.20
2022-12-31T07:43:22.401Z,59.40
2022-12-31T07:46:00.150Z,60.10
2022-12-31T07:48:29.402Z,62.60
2022-12-31T07:50:57.852Z,64.10
2022-12-31T07:53:26.996Z,58.10
2022-12-31T07:55:58.279Z,65.80
2022-12-31T07:58:29.175Z,64.30
2022-12-31T08:00:59.798Z,39.60
2022-12-31T08:03:37.949Z,79.30
2022-12-31T08:06:19.439Z,67.30
2022-12-31T08:08:53.160Z,57.00
2022-12-31T08:11:34.483Z,63.20
2022-12-31T08:14:03.069Z,67.20
2022-12-31T08:16:31.426Z,50.00
2022-12-31T08:18:59.649Z,56.70
2022-12-31T08:21:37.199Z,43.70
2022-12-31T08:24:14.251Z,32.10
2022-12-31T08:26:49.521Z,68.10
2022-12-31T08:29:28.400Z,70.60
2022-12-31T08:32:02.475Z,45.30
2022-12-31T08:34:49.002Z,66.70
2022-12-31T08:37:29.110Z,61.40
2022-12-31T08:39:57.103Z,66.60
2022-12-31T08:42:43.674Z,44.60
2022-12-31T08:45:19.037Z,65.80
2022-12-31T08:48:16.741Z,76.00
2022-12-31T08:50:45.017Z,74.00
2022-12-31T08:53:13.225Z,63.20
2022-12-31T08:55:43.743Z,71.70
2022-12-31T08:58:36.246Z,51.30
2022-12-31T09:01:07.473Z,35.00
2022-12-31T09:03:54.120Z,59.70
2022-12-31T09:06:42.077Z,60.50
2022-12-31T09:09:28.387Z,38.70
2022-12-31T09:12:41.760Z,32.30
2022-12-31T09:15:25.977Z,52.90
2022-12-31T09:17:54.296Z,40.40
2022-12-31T09:20:42.763Z,29.50
2022-12-31T09:23:13.461Z,27.80
2022-12-31T09:25:59.381Z,28.30
2022-12-31T09:29:11.100Z,45.80
2022-12-31T09:32:08.406Z,43.50
2022-12-31T09:34:47.060Z,40.30
2022-12-31T09:37:28.346Z,33.00
2022-12-31T09:40:01.772Z,46.50
2022-12-31T09:42:47.938Z,41.50
2022-12-31T09:45:26.377Z,50.80
2022-12-31T09:48:21.036Z,48.70
2022-12-31T09:51:27.000Z,44.10
2022-12-31T09:54:10.141Z,36.60
2022-12-31T09:57:22.639Z,38.30
2022-12-31T10:00:02.848Z,21.10
2022-12-31T10:02:46.345Z,35.30
2022-12-31T10:05:42.583Z,28.40
2022-12-31T10:08:43.131Z,33.30
2022-12-31T10:11:41.301Z,34.50
2022-12-31T10:14:47.862Z,31.60
2022-12-31T10:17:31.250Z,22.60
2022-12-31T10:20:15.028Z,31.80
2022-12-31T10:22:46.407Z,23.90
2022-12-31T10:25:39.671Z,28.30
2022-12-31T10:28:26.401Z,17.80
2022-12-31T10:31:35.385Z,34.90
2022-12-31T10:34:19.845Z,42.70
2022-12-31T10:37:11.262Z,40.90
2022-12-31T10:39:54.294Z,53.30
2022-12-31T10:42:59.944Z,30.50
2022-12-31T10:45:46.727Z,28.90
2022-12-31T10:48:36.848Z,23.10
2022-12-31T10:51:20.873Z,35.10
2022-12-31T10:54:21.310Z,42.10
2022-12-31T10:57:15.227Z,47.10
2022-12-31T11:00:01.211Z,42.60
2022-12-31T11:02:51.732Z,34.70
2022-12-31T11:05:47.452Z,32.60
2022-12-31T11:08:34.554Z,50.20
2022-12-31T11:11:28.603Z,29.40
2022-12-31T11:14:30.464Z,40.30
2022-12-31T11:17:16.746Z,39.60
2022-12-31T11:20:15.232Z,31.50
2022-12-31T11:22:54.198Z,35.20
2022-12-31T11:25:54.779Z,33.50
2022-12-31T11:28:35.049Z,32.80
2022-12-31T11:31:38.368Z,23.50
2022-12-31T11:34:41.219Z,18.80
2022-12-31T11:37:49.499Z,30.90
2022-12-31T11:40:43.483Z,21.40
2022-12-31T11:43:50.508Z,27.60
2022-12-31T11:46:31.212Z,21.00
2022-12-31T11:49:34.705Z,31.00
2022-12-31T11:52:21.377Z,30.70
2022-12-31T11:55:08.501Z,26.20
2022-12-31T11:57:39.937Z,19.10
2022-12-31T12:00:20.469Z,30.50
2022-12-31T12:02:58.002Z,25.60
2022-12-31T12:05:27.507Z,31.80
2022-12-31T12:07:56.280Z,32.90
2022-12-31T12:10:35.698Z,34.00
2022-12-31T12:13:25.555Z,27.90
2022-12-31T12:15:57.281Z,23.30
2022-12-31T12:18:38.748Z,21.30
2022-12-31T12:21:11.052Z,29.30
2022-12-31T12:23:40.455Z,30.70
2022-12-31T12:26:28.695Z,37.20
2022-12-31T12:29:01.629Z,27.30
2022-12-31T12:31:30.716Z,21.90
2022-12-31T12:33:58.836Z,22.80
2022-12-31T12:36:27.024Z,24.20
2022-12-31T12:39:06.196Z,29.30
2022-12-31T12:41:34.352Z,20.40
2022-12-31T12:44:14.507Z,35.30
2022-12-31T12:46:53.118Z,22.90
2022-12-31T12:49:27.724Z,26.40
2022-12-31T12:52:32.945Z,24.70
2022-12-31T12:55:39.574Z,22.70
2022-12-31T12:58:30.071Z,21.30
2022-12-31T13:01:10.124Z,27.80
2022-12-31T13:04:31.819Z,29.60
2022-12-31T13:07:09.711Z,23.60
2022-12-31T13:09:43.714Z,19.80
2022-12-31T13:12:11.690Z,24.20
2022-12-31T13:14:58.312Z,17.10
2022-12-31T13:18:14.906Z,25.60
2022-12-31T13:20:58.191Z,16.40
2022-12-31T13:23:42.300Z,18.50
2022-12-31T13:26:14.671Z,27.00
2022-12-31T13:28:46.358Z,21.60
2022-12-31T13:31:26.521Z,26.60
2022-12-31T13:34:01.176Z,20.50
2022-12-31T13:36:33.075Z,29.30
2022-12-31T13:39:05.603Z,26.60
2022-12-31T13:44:08.606Z,26.50
2022-12-31T13:46:50.271Z,32.50
2022-12-31T13:49:50.270Z,29.60
2022-12-31T13:52:29.888Z,26.30
2022-12-31T13:55:03.680Z,22.70
2022-12-31T13:57:48.283Z,28.30
2022-12-31T14:00:21.806Z,30.40
2022-12-31T14:03:09.200Z,30.30
2022-12-31T14:05:49.854Z,24.70
2022-12-31T14:08:18.047Z,29.60
2022-12-31T14:11:07.072Z,28.90
2022-12-31T14:13:57.764Z,29.10
2022-12-31T14:16:45.876Z,29.00
2022-12-31T14:19:56.493Z,23.60
2022-12-31T14:22:49.459Z,20.30
2022-12-31T14:27:51.282Z,25.30
2022-12-31T14:30:22.806Z,32.10
2022-12-31T14:33:28.684Z,43.20
2022-12-31T14:36:22.908Z,54.30
2022-12-31T14:39:10.549Z,42.30
2022-12-31T14:42:04.912Z,35.20
2022-12-31T14:45:25.575Z,36.80
2022-12-31T14:48:00.327Z,24.60
2022-12-31T14:50:31.167Z,26.30
2022-12-31T14:52:59.174Z,61.80
2022-12-31T14:55:34.114Z,61.90
2022-12-31T14:58:28.584Z,36.60
2022-12-31T15:00:59.381Z,35.00
2022-12-31T15:03:46.069Z,32.60
2022-12-31T15:06:23.768Z,25.60
2022-12-31T15:09:10.534Z,20.90
2022-12-31T15:12:06.803Z,35.60
2022-12-31T15:15:04.558Z,42.80
2022-12-31T15:17:48.167Z,43.10
2022-12-31T15:20:55.813Z,26.50
2022-12-31T15:23:42.711Z,24.00
2022-12-31T15:26:31.612Z,32.50
2022-12-31T15:29:06.542Z,24.90
2022-12-31T15:31:36.623Z,29.80
2022-12-31T15:34:20.465Z,46.20
2022-12-31T15:36:55.114Z,76.80
2022-12-31T15:39:43.594Z,45.70
2022-12-31T15:42:50.126Z,49.00
2022-12-31T15:45:28.055Z,39.50
2022-12-31T15:48:00.921Z,47.90
2022-12-31T15:50:30.099Z,40.30
2022-12-31T15:53:02.833Z,43.40
2022-12-31T15:55:48.708Z,43.80
2022-12-31T15:58:20.804Z,49.70
2022-12-31T16:01:10.606Z,60.70
2022-12-31T16:03:45.085Z,57.50
2022-12-31T16:06:15.654Z,42.50
2022-12-31T16:08:46.334Z,24.60
2022-12-31T16:11:16.308Z,28.90
2022-12-31T16:13:47.396Z,43.80
2022-12-31T16:16:28.033Z,30.70
2022-12-31T16:18:57.370Z,27.80
2022-12-31T16:21:34.733Z,28.80
2022-12-31T16:24:26.312Z,52.50
2022-12-31T16:26:59.193Z,46.70
2022-12-31T16:29:28.060Z,51.60
2022-12-31T16:31:56.134Z,45.70
2022-12-31T16:34:27.000Z,30.50
2022-12-31T16:36:56.611Z,50.70
2022-12-31T16:39:37.828Z,39.10
2022-12-31T16:42:17.737Z,29.50
2022-12-31T16:44:47.517Z,44.60
2022-12-31T16:47:31.584Z,25.50
2022-12-31T16:50:05.524Z,42.40
2022-12-31T16:52:42.331Z,41.20
2022-12-31T16:55:18.393Z,45.00
2022-12-31T16:57:49.175Z,50.80
2022-12-31T17:00:19.125Z,32.00
2022-12-31T17:03:10.740Z,29.00
2022-12-31T17:06:18.888Z,52.60
2022-12-31T17:09:05.640Z,54.60
2022-12-31T17:11:35.572Z,55.00
2022-12-31T17:14:13.053Z,53.80
2022-12-31T17:17:02.826Z,43.50
2022-12-31T17:19:37.543Z,29.80
2022-12-31T17:22:11.747Z,47.50
2022-12-31T17:24:40.334Z,42.20
2022-12-31T17:27:09.612Z,28.90
2022-12-31T17:29:37.976Z,30.90
2022-12-31T17:32:28.130Z,50.60
2022-12-31T17:34:56.260Z,59.60
2022-12-31T17:37:30.088Z,71.10
2022-12-31T17:40:49.928Z,84.90
2022-12-31T17:42:50.697Z,75.20
2022-12-31T17:45:21.768Z,67.40
2022-12-31T17:47:52.564Z,63.00
2022-12-31T17:50:25.603Z,66.70
2022-12-31T17:53:08.716Z,116.30
2022-12-31T17:55:37.278Z,75.10
2022-12-31T17:58:06.940Z,56.10
2022-12-31T18:00:36.913Z,45.30
2022-12-31T18:03:05.039Z,40.90
2022-12-31T18:05:33.075Z,40.30
2022-12-31T18:08:01.197Z,38.40
2022-12-31T18:10:32.376Z,37.00
2022-12-31T18:13:01.835Z,72.00
2022-12-31T18:15:29.885Z,82.30
2022-12-31T18:17:58.014Z,49.80
2022-12-31T18:20:26.499Z,72.50
2022-12-31T18:22:55.915Z,71.50
2022-12-31T18:25:24.359Z,67.40
2022-12-31T18:27:52.926Z,57.80
2022-12-31T18:30:21.374Z,62.50
2022-12-31T18:32:49.655Z,70.40
2022-12-31T18:35:57.611Z,85.10
2022-12-31T18:38:13.890Z,32.50
2022-12-31T18:40:46.463Z,34.90
2022-12-31T18:43:17.251Z,47.60
2022-12-31T18:45:46.633Z,33.70
2022-12-31T18:48:15.750Z,69.00
2022-12-31T18:50:44.546Z,70.90
2022-12-31T18:53:19.340Z,72.70
2022-12-31T18:55:54.316Z,68.10
2022-12-31T18:58:22.837Z,36.90
2022-12-31T19:00:52.187Z,45.20
2022-12-31T19:03:24.044Z,46.80
2022-12-31T19:05:52.263Z,43.00
2022-12-31T19:08:22.468Z,37.80
2022-12-31T19:10:52.188Z,83.60
2022-12-31T19:13:21.063Z,54.10
2022-12-31T19:15:53.385Z,64.10
2022-12-31T19:18:21.502Z,71.80
2022-12-31T19:20:52.172Z,66.20
2022-12-31T19:23:22.600Z,49.30
2022-12-31T19:25:50.767Z,30.80
2022-12-31T19:28:27.219Z,35.10
2022-12-31T19:30:55.764Z,32.00
2022-12-31T19:33:23.724Z,32.10
2022-12-31T19:35:51.742Z,31.20
2022-12-31T19:38:25.327Z,55.90
2022-12-31T19:40:53.804Z,41.80
2022-12-31T19:43:23.652Z,31.80
2022-12-31T19:45:52.351Z,32.60
2022-12-31T19:48:30.317Z,42.50
2022-12-31T19:51:00.465Z,65.20
2022-12-31T19:53:28.876Z,41.00
2022-12-31T19:55:56.852Z,47.60
2022-12-31T19:58:27.006Z,52.70
2022-12-31T20:01:02.323Z,66.70
2022-12-31T20:03:33.212Z,46.60
2022-12-31T20:06:06.562Z,34.70
2022-12-31T20:08:36.178Z,34.70
2022-12-31T20:11:19.146Z,38.60
2022-12-31T20:13:49.609Z,37.80
2022-12-31T20:16:20.463Z,54.50
2022-12-31T20:18:50.648Z,35.60
2022-12-31T20:21:24.408Z,49.40
2022-12-31T20:23:53.907Z,39.50
2022-12-31T20:26:24.444Z,47.00
2022-12-31T20:28:53.350Z,53.80
2022-12-31T20:31:24.499Z,49.20
2022-12-31T20:33:54.369Z,46.30
2022-12-31T20:36:23.226Z,46.40
2022-12-31T20:38:51.468Z,33.40
2022-12-31T20:41:22.091Z,39.10
2022-12-31T20:43:51.504Z,40.00
2022-12-31T20:46:23.215Z,41.00
2022-12-31T20:48:53.839Z,43.00
2022-12-31T20:51:23.946Z,30.60
2022-12-31T20:53:57.418Z,43.90
2022-12-31T20:56:30.676Z,44.80
2022-12-31T20:58:59.374Z,30.80
2022-12-31T21:01:41.863Z,44.80
2022-12-31T21:04:15.812Z,53.30
2022-12-31T21:06:44.066Z,51.40
2022-12-31T21:09:12.042Z,42.50
2022-12-31T21:11:58.559Z,27.80
2022-12-31T21:14:26.509Z,58.70
2022-12-31T21:16:54.486Z,33.50
2022-12-31T21:19:22.555Z,56.20
2022-12-31T21:21:51.330Z,36.40
2022-12-31T21:24:23.877Z,60.10
2022-12-31T21:26:55.704Z,58.20
2022-12-31T21:29:23.752Z,53.40
2022-12-31T21:31:51.751Z,63.40
2022-12-31T21:34:19.938Z,55.30
2022-12-31T21:36:48.021Z,38.90
2022-12-31T21:39:16.091Z,55.90
2022-12-31T21:41:52.931Z,54.40
2022-12-31T21:44:24.721Z,51.50
2022-12-31T21:47:35.012Z,46.90
2022-12-31T21:50:05.426Z,139.40
2022-12-31T21:52:36.182Z,49.10
2022-12-31T21:55:24.039Z,52.90
2022-12-31T21:58:24.713Z,55.70
2022-12-31T22:00:59.535Z,36.40
2022-12-31T22:03:28.697Z,34.20
2022-12-31T22:06:12.362Z,40.40
2022-12-31T22:08:42.015Z,66.50
2022-12-31T22:11:11.789Z,54.40
2022-12-31T22:13:40.345Z,55.60
2022-12-31T22:16:09.565Z,63.50
2022-12-31T22:18:39.524Z,54.50
2022-12-31T22:21:18.900Z,86.60
2022-12-31T22:23:50.425Z,116.90
2022-12-31T22:26:22.107Z,119.60
2022-12-31T22:28:51.475Z,116.10
2022-12-31T22:31:24.480Z,117.60
2022-12-31T22:33:53.251Z,88.90
2022-12-31T22:36:23.330Z,69.90
2022-12-31T22:38:55.958Z,68.50
2022-12-31T22:44:03.143Z,87.60
2022-12-31T22:46:32.783Z,63.70
2022-12-31T22:49:02.997Z,61.80
2022-12-31T22:51:55.909Z,58.20
2022-12-31T22:54:21.638Z,80.80
2022-12-31T22:56:49.652Z,76.30
2022-12-31T22:59:17.820Z,101.90
2022-12-31T23:01:46.239Z,116.80
2022-12-31T23:04:15.486Z,114.80
2022-12-31T23:06:43.647Z,121.60
2022-12-31T23:09:34.443Z,83.20
2022-12-31T23:12:03.815Z,66.60
2022-12-31T23:14:50.504Z,66.40
2022-12-31T23:17:42.776Z,62.90
2022-12-31T23:20:36.204Z,102.70
2022-12-31T23:23:08.680Z,109.40
2022-12-31T23:25:49.207Z,114.00
2022-12-31T23:28:20.577Z,102.70
2022-12-31T23:30:51.349Z,88.00
2022-12-31T23:33:23.929Z,106.60
2022-12-31T23:36:05.341Z,66.50
2022-12-31T23:38:33.587Z,61.00
2022-12-31T23:41:12.497Z,116.20
2022-12-31T23:43:40.553Z,103.50
2022-12-31T23:46:08.658Z,68.20
2022-12-31T23:48:36.681Z,127.90
2022-12-31T23:51:05.388Z,97.40
2022-12-31T23:53:33.925Z,70.00
2022-12-31T23:56:14.841Z,134.60
2022-12-31T23:58:45.686Z,138.90
